sensor_id;sensor_type;location;lat;lon;timestamp;P1;durP1;ratioP1;P2;durP2;ratioP2
56171;SDS011;42052;41.634;-0.946;2024-02-23T00:01:17;5.38;;;2.38;;
56171;SDS011;42052;41.634;-0.946;2024-02-23T00:03:43;5.43;;;2.30;;
56171;SDS011;42052;41.634;-0.946;2024-02-23T00:06:10;4.25;;;1.90;;
56171;SDS011;42052;41.634;-0.946;2024-02-23T00:08:35;4.15;;;2.13;;
56171;SDS011;42052;41.634;-0.946;2024-02-23T00:11:02;5.93;;;2.20;;
56171;SDS011;42052;41.634;-0.946;2024-02-23T00:13:28;3.95;;;1.90;;
56171;SDS011;42052;41.634;-0.946;2024-02-23T00:15:54;4.53;;;2.00;;
56171;SDS011;42052;41.634;-0.946;2024-02-23T00:18:20;4.45;;;2.17;;
56171;SDS011;42052;41.634;-0.946;2024-02-23T00:20:46;5.40;;;2.13;;
56171;SDS011;42052;41.634;-0.946;2024-02-23T00:23:12;5.47;;;1.92;;
56171;SDS011;42052;41.634;-0.946;2024-02-23T00:25:38;4.57;;;2.03;;
56171;SDS011;42052;41.634;-0.946;2024-02-23T00:28:04;4.75;;;1.80;;
56171;SDS011;42052;41.634;-0.946;2024-02-23T00:30:30;4.43;;;1.77;;
56171;SDS011;42052;41.634;-0.946;2024-02-23T00:32:56;4.53;;;1.80;;
56171;SDS011;42052;41.634;-0.946;2024-02-23T00:35:22;3.55;;;1.60;;
56171;SDS011;42052;41.634;-0.946;2024-02-23T00:37:48;5.40;;;1.70;;
56171;SDS011;42052;41.634;-0.946;2024-02-23T00:40:14;4.78;;;1.77;;
56171;SDS011;42052;41.634;-0.946;2024-02-23T00:42:40;4.13;;;1.70;;
56171;SDS011;42052;41.634;-0.946;2024-02-23T00:45:06;5.88;;;1.75;;
56171;SDS011;42052;41.634;-0.946;2024-02-23T00:47:33;3.83;;;1.77;;
56171;SDS011;42052;41.634;-0.946;2024-02-23T00:50:00;2.42;;;1.20;;
56171;SDS011;42052;41.634;-0.946;2024-02-23T00:52:27;4.38;;;1.60;;
56171;SDS011;42052;41.634;-0.946;2024-02-23T00:54:52;3.88;;;1.73;;
56171;SDS011;42052;41.634;-0.946;2024-02-23T00:57:18;3.67;;;1.70;;
56171;SDS011;42052;41.634;-0.946;2024-02-23T00:59:51;3.85;;;1.42;;
56171;SDS011;42052;41.634;-0.946;2024-02-23T01:02:16;3.70;;;1.55;;
56171;SDS011;42052;41.634;-0.946;2024-02-23T01:04:42;4.63;;;1.58;;
56171;SDS011;42052;41.634;-0.946;2024-02-23T01:07:08;4.20;;;1.50;;
56171;SDS011;42052;41.634;-0.946;2024-02-23T01:09:34;5.68;;;1.60;;
56171;SDS011;42052;41.634;-0.946;2024-02-23T01:12:00;2.90;;;1.13;;
56171;SDS011;42052;41.634;-0.946;2024-02-23T01:14:26;3.30;;;1.40;;
56171;SDS011;42052;41.634;-0.946;2024-02-23T01:16:51;4.68;;;1.45;;
56171;SDS011;42052;41.634;-0.946;2024-02-23T01:19:17;3.88;;;1.45;;
56171;SDS011;42052;41.634;-0.946;2024-02-23T01:21:44;3.30;;;1.35;;
56171;SDS011;42052;41.634;-0.946;2024-02-23T01:24:09;4.13;;;1.30;;
56171;SDS011;42052;41.634;-0.946;2024-02-23T01:26:35;4.15;;;1.38;;
56171;SDS011;42052;41.634;-0.946;2024-02-23T01:29:01;3.70;;;1.30;;
56171;SDS011;42052;41.634;-0.946;2024-02-23T01:31:28;3.63;;;1.50;;
56171;SDS011;42052;41.634;-0.946;2024-02-23T01:33:54;4.95;;;1.40;;
56171;SDS011;42052;41.634;-0.946;2024-02-23T01:36:20;3.92;;;1.33;;
56171;SDS011;42052;41.634;-0.946;2024-02-23T01:38:46;5.90;;;1.50;;
56171;SDS011;42052;41.634;-0.946;2024-02-23T01:41:15;2.95;;;1.23;;
56171;SDS011;42052;41.634;-0.946;2024-02-23T01:43:41;4.78;;;1.20;;
56171;SDS011;42052;41.634;-0.946;2024-02-23T01:46:06;3.28;;;1.33;;
56171;SDS011;42052;41.634;-0.946;2024-02-23T01:48:37;2.95;;;1.10;;
56171;SDS011;42052;41.634;-0.946;2024-02-23T01:51:03;3.10;;;1.00;;
56171;SDS011;42052;41.634;-0.946;2024-02-23T01:53:29;3.40;;;1.40;;
56171;SDS011;42052;41.634;-0.946;2024-02-23T01:55:55;2.92;;;1.20;;
56171;SDS011;42052;41.634;-0.946;2024-02-23T01:58:22;3.65;;;1.23;;
56171;SDS011;42052;41.634;-0.946;2024-02-23T02:00:49;2.47;;;1.15;;
56171;SDS011;42052;41.634;-0.946;2024-02-23T02:03:15;4.55;;;1.40;;
56171;SDS011;42052;41.634;-0.946;2024-02-23T02:05:41;3.03;;;1.02;;
56171;SDS011;42052;41.634;-0.946;2024-02-23T02:08:07;4.50;;;1.20;;
56171;SDS011;42052;41.634;-0.946;2024-02-23T02:10:33;2.78;;;1.20;;
56171;SDS011;42052;41.634;-0.946;2024-02-23T02:13:02;3.50;;;1.20;;
56171;SDS011;42052;41.634;-0.946;2024-02-23T02:15:29;2.60;;;1.10;;
56171;SDS011;42052;41.634;-0.946;2024-02-23T02:17:55;3.05;;;1.20;;
56171;SDS011;42052;41.634;-0.946;2024-02-23T02:20:23;2.45;;;1.20;;
56171;SDS011;42052;41.634;-0.946;2024-02-23T02:22:50;2.60;;;1.23;;
56171;SDS011;42052;41.634;-0.946;2024-02-23T02:25:17;2.65;;;1.27;;
56171;SDS011;42052;41.634;-0.946;2024-02-23T02:27:43;2.70;;;1.00;;
56171;SDS011;42052;41.634;-0.946;2024-02-23T02:30:11;3.20;;;0.98;;
56171;SDS011;42052;41.634;-0.946;2024-02-23T02:32:37;3.22;;;1.10;;
56171;SDS011;42052;41.634;-0.946;2024-02-23T02:35:03;3.13;;;1.10;;
56171;SDS011;42052;41.634;-0.946;2024-02-23T02:37:29;3.40;;;1.23;;
56171;SDS011;42052;41.634;-0.946;2024-02-23T02:39:55;4.20;;;1.10;;
56171;SDS011;42052;41.634;-0.946;2024-02-23T02:42:21;2.67;;;0.88;;
56171;SDS011;42052;41.634;-0.946;2024-02-23T02:44:47;4.18;;;1.20;;
56171;SDS011;42052;41.634;-0.946;2024-02-23T02:47:12;3.47;;;1.38;;
56171;SDS011;42052;41.634;-0.946;2024-02-23T02:49:39;4.07;;;1.27;;
56171;SDS011;42052;41.634;-0.946;2024-02-23T02:52:05;1.88;;;1.00;;
56171;SDS011;42052;41.634;-0.946;2024-02-23T02:54:33;2.22;;;1.00;;
56171;SDS011;42052;41.634;-0.946;2024-02-23T02:56:59;3.92;;;1.10;;
56171;SDS011;42052;41.634;-0.946;2024-02-23T02:59:25;3.25;;;1.00;;
56171;SDS011;42052;41.634;-0.946;2024-02-23T03:01:51;3.17;;;1.10;;
56171;SDS011;42052;41.634;-0.946;2024-02-23T03:04:16;2.20;;;1.00;;
56171;SDS011;42052;41.634;-0.946;2024-02-23T03:06:42;3.25;;;1.13;;
56171;SDS011;42052;41.634;-0.946;2024-02-23T03:09:08;2.78;;;1.10;;
56171;SDS011;42052;41.634;-0.946;2024-02-23T03:11:35;3.33;;;1.00;;
56171;SDS011;42052;41.634;-0.946;2024-02-23T03:14:01;2.88;;;0.90;;
56171;SDS011;42052;41.634;-0.946;2024-02-23T03:16:28;2.65;;;1.15;;
56171;SDS011;42052;41.634;-0.946;2024-02-23T03:18:56;2.40;;;1.00;;
56171;SDS011;42052;41.634;-0.946;2024-02-23T03:21:22;2.70;;;1.02;;
56171;SDS011;42052;41.634;-0.946;2024-02-23T03:23:48;5.68;;;1.00;;
56171;SDS011;42052;41.634;-0.946;2024-02-23T03:26:13;3.08;;;1.17;;
56171;SDS011;42052;41.634;-0.946;2024-02-23T03:28:42;2.70;;;0.90;;
56171;SDS011;42052;41.634;-0.946;2024-02-23T03:31:08;3.60;;;1.15;;
56171;SDS011;42052;41.634;-0.946;2024-02-23T03:33:34;3.15;;;1.00;;
56171;SDS011;42052;41.634;-0.946;2024-02-23T03:35:59;2.50;;;1.00;;
56171;SDS011;42052;41.634;-0.946;2024-02-23T03:38:25;2.53;;;1.00;;
56171;SDS011;42052;41.634;-0.946;2024-02-23T03:40:51;3.63;;;1.02;;
56171;SDS011;42052;41.634;-0.946;2024-02-23T03:43:19;1.90;;;1.00;;
56171;SDS011;42052;41.634;-0.946;2024-02-23T03:45:44;3.45;;;0.82;;
56171;SDS011;42052;41.634;-0.946;2024-02-23T03:48:10;2.42;;;0.93;;
56171;SDS011;42052;41.634;-0.946;2024-02-23T03:50:36;1.92;;;0.73;;
56171;SDS011;42052;41.634;-0.946;2024-02-23T03:53:02;2.15;;;0.80;;
56171;SDS011;42052;41.634;-0.946;2024-02-23T03:55:28;3.67;;;1.10;;
56171;SDS011;42052;41.634;-0.946;2024-02-23T03:57:54;2.80;;;0.95;;
56171;SDS011;42052;41.634;-0.946;2024-02-23T04:00:20;1.98;;;0.73;;
56171;SDS011;42052;41.634;-0.946;2024-02-23T04:02:48;2.13;;;0.90;;
56171;SDS011;42052;41.634;-0.946;2024-02-23T04:05:14;2.40;;;0.90;;
56171;SDS011;42052;41.634;-0.946;2024-02-23T04:07:40;2.08;;;0.90;;
56171;SDS011;42052;41.634;-0.946;2024-02-23T04:10:06;2.00;;;0.60;;
56171;SDS011;42052;41.634;-0.946;2024-02-23T04:12:32;1.52;;;0.82;;
56171;SDS011;42052;41.634;-0.946;2024-02-23T04:14:58;1.60;;;0.68;;
56171;SDS011;42052;41.634;-0.946;2024-02-23T04:17:25;2.47;;;1.00;;
56171;SDS011;42052;41.634;-0.946;2024-02-23T04:19:50;2.28;;;0.90;;
56171;SDS011;42052;41.634;-0.946;2024-02-23T04:22:16;2.72;;;0.80;;
56171;SDS011;42052;41.634;-0.946;2024-02-23T04:24:42;2.08;;;1.00;;
56171;SDS011;42052;41.634;-0.946;2024-02-23T04:27:08;1.77;;;0.73;;
56171;SDS011;42052;41.634;-0.946;2024-02-23T04:29:34;2.35;;;0.90;;
56171;SDS011;42052;41.634;-0.946;2024-02-23T04:32:00;2.78;;;0.73;;
56171;SDS011;42052;41.634;-0.946;2024-02-23T04:34:27;1.98;;;0.80;;
56171;SDS011;42052;41.634;-0.946;2024-02-23T04:36:53;1.52;;;0.70;;
56171;SDS011;42052;41.634;-0.946;2024-02-23T04:39:19;1.40;;;0.60;;
56171;SDS011;42052;41.634;-0.946;2024-02-23T04:41:45;1.52;;;0.60;;
56171;SDS011;42052;41.634;-0.946;2024-02-23T04:44:11;2.33;;;0.63;;
56171;SDS011;42052;41.634;-0.946;2024-02-23T04:46:37;1.45;;;0.60;;
56171;SDS011;42052;41.634;-0.946;2024-02-23T04:49:03;1.10;;;0.52;;
56171;SDS011;42052;41.634;-0.946;2024-02-23T04:51:29;1.52;;;0.60;;
56171;SDS011;42052;41.634;-0.946;2024-02-23T04:53:54;1.30;;;0.50;;
56171;SDS011;42052;41.634;-0.946;2024-02-23T04:56:20;2.08;;;0.85;;
56171;SDS011;42052;41.634;-0.946;2024-02-23T04:58:46;1.80;;;0.80;;
56171;SDS011;42052;41.634;-0.946;2024-02-23T05:01:12;1.85;;;0.60;;
56171;SDS011;42052;41.634;-0.946;2024-02-23T05:03:38;1.80;;;0.70;;
56171;SDS011;42052;41.634;-0.946;2024-02-23T05:06:04;1.45;;;0.60;;
56171;SDS011;42052;41.634;-0.946;2024-02-23T05:08:30;3.00;;;0.80;;
56171;SDS011;42052;41.634;-0.946;2024-02-23T05:10:56;2.33;;;0.90;;
56171;SDS011;42052;41.634;-0.946;2024-02-23T05:13:23;1.15;;;0.50;;
56171;SDS011;42052;41.634;-0.946;2024-02-23T05:15:49;1.50;;;0.60;;
56171;SDS011;42052;41.634;-0.946;2024-02-23T05:18:15;1.55;;;0.70;;
56171;SDS011;42052;41.634;-0.946;2024-02-23T05:20:40;1.70;;;0.70;;
56171;SDS011;42052;41.634;-0.946;2024-02-23T05:23:06;1.88;;;0.70;;
56171;SDS011;42052;41.634;-0.946;2024-02-23T05:25:32;2.83;;;0.80;;
56171;SDS011;42052;41.634;-0.946;2024-02-23T05:27:58;1.15;;;0.50;;
56171;SDS011;42052;41.634;-0.946;2024-02-23T05:30:24;1.80;;;0.60;;
56171;SDS011;42052;41.634;-0.946;2024-02-23T05:32:52;1.38;;;0.60;;
56171;SDS011;42052;41.634;-0.946;2024-02-23T05:35:18;1.83;;;0.70;;
56171;SDS011;42052;41.634;-0.946;2024-02-23T05:37:44;1.75;;;0.80;;
56171;SDS011;42052;41.634;-0.946;2024-02-23T05:40:10;1.35;;;0.60;;
56171;SDS011;42052;41.634;-0.946;2024-02-23T05:42:36;2.03;;;0.77;;
56171;SDS011;42052;41.634;-0.946;2024-02-23T05:45:03;2.10;;;0.70;;
56171;SDS011;42052;41.634;-0.946;2024-02-23T05:47:37;2.90;;;0.60;;
56171;SDS011;42052;41.634;-0.946;2024-02-23T05:50:04;1.10;;;0.60;;
56171;SDS011;42052;41.634;-0.946;2024-02-23T05:52:33;1.92;;;0.70;;
56171;SDS011;42052;41.634;-0.946;2024-02-23T05:54:59;1.63;;;0.63;;
56171;SDS011;42052;41.634;-0.946;2024-02-23T05:57:26;2.05;;;0.68;;
56171;SDS011;42052;41.634;-0.946;2024-02-23T05:59:52;1.65;;;0.55;;
56171;SDS011;42052;41.634;-0.946;2024-02-23T06:02:18;2.47;;;0.80;;
56171;SDS011;42052;41.634;-0.946;2024-02-23T06:04:44;3.22;;;0.60;;
56171;SDS011;42052;41.634;-0.946;2024-02-23T06:07:10;2.15;;;0.60;;
56171;SDS011;42052;41.634;-0.946;2024-02-23T06:09:36;1.70;;;0.70;;
56171;SDS011;42052;41.634;-0.946;2024-02-23T06:12:02;2.10;;;0.65;;
56171;SDS011;42052;41.634;-0.946;2024-02-23T06:14:28;1.17;;;0.60;;
56171;SDS011;42052;41.634;-0.946;2024-02-23T06:16:54;1.25;;;0.60;;
56171;SDS011;42052;41.634;-0.946;2024-02-23T06:19:20;1.63;;;0.70;;
56171;SDS011;42052;41.634;-0.946;2024-02-23T06:21:48;1.73;;;0.80;;
56171;SDS011;42052;41.634;-0.946;2024-02-23T06:24:15;7.75;;;0.88;;
56171;SDS011;42052;41.634;-0.946;2024-02-23T06:26:41;1.98;;;0.70;;
56171;SDS011;42052;41.634;-0.946;2024-02-23T06:29:07;2.58;;;0.60;;
56171;SDS011;42052;41.634;-0.946;2024-02-23T06:31:38;1.52;;;0.73;;
56171;SDS011;42052;41.634;-0.946;2024-02-23T06:34:04;3.58;;;0.65;;
56171;SDS011;42052;41.634;-0.946;2024-02-23T06:36:30;0.93;;;0.60;;
56171;SDS011;42052;41.634;-0.946;2024-02-23T06:38:56;3.30;;;0.80;;
56171;SDS011;42052;41.634;-0.946;2024-02-23T06:41:22;3.40;;;0.80;;
56171;SDS011;42052;41.634;-0.946;2024-02-23T06:43:48;1.60;;;0.60;;
56171;SDS011;42052;41.634;-0.946;2024-02-23T06:46:13;2.75;;;0.70;;
56171;SDS011;42052;41.634;-0.946;2024-02-23T06:48:39;2.10;;;0.60;;
56171;SDS011;42052;41.634;-0.946;2024-02-23T06:51:05;3.00;;;0.75;;
56171;SDS011;42052;41.634;-0.946;2024-02-23T06:53:34;3.30;;;0.80;;
56171;SDS011;42052;41.634;-0.946;2024-02-23T06:56:00;1.58;;;0.70;;
56171;SDS011;42052;41.634;-0.946;2024-02-23T06:58:27;1.85;;;0.70;;
56171;SDS011;42052;41.634;-0.946;2024-02-23T07:00:53;4.20;;;0.90;;
56171;SDS011;42052;41.634;-0.946;2024-02-23T07:03:19;3.30;;;0.90;;
56171;SDS011;42052;41.634;-0.946;2024-02-23T07:05:45;1.65;;;0.70;;
56171;SDS011;42052;41.634;-0.946;2024-02-23T07:08:12;1.60;;;0.80;;
56171;SDS011;42052;41.634;-0.946;2024-02-23T07:10:38;2.88;;;0.80;;
56171;SDS011;42052;41.634;-0.946;2024-02-23T07:13:04;1.75;;;0.85;;
56171;SDS011;42052;41.634;-0.946;2024-02-23T07:15:30;1.98;;;0.90;;
56171;SDS011;42052;41.634;-0.946;2024-02-23T07:17:57;1.75;;;0.80;;
56171;SDS011;42052;41.634;-0.946;2024-02-23T07:20:23;2.00;;;0.80;;
56171;SDS011;42052;41.634;-0.946;2024-02-23T07:22:49;2.35;;;0.80;;
56171;SDS011;42052;41.634;-0.946;2024-02-23T07:25:15;4.60;;;0.82;;
56171;SDS011;42052;41.634;-0.946;2024-02-23T07:27:42;1.92;;;0.80;;
56171;SDS011;42052;41.634;-0.946;2024-02-23T07:30:10;1.88;;;0.85;;
56171;SDS011;42052;41.634;-0.946;2024-02-23T07:32:36;1.90;;;0.70;;
56171;SDS011;42052;41.634;-0.946;2024-02-23T07:35:03;1.95;;;0.77;;
56171;SDS011;42052;41.634;-0.946;2024-02-23T07:37:29;1.88;;;0.88;;
56171;SDS011;42052;41.634;-0.946;2024-02-23T07:39:55;3.08;;;0.90;;
56171;SDS011;42052;41.634;-0.946;2024-02-23T07:42:21;2.22;;;0.77;;
56171;SDS011;42052;41.634;-0.946;2024-02-23T07:44:46;1.70;;;0.70;;
56171;SDS011;42052;41.634;-0.946;2024-02-23T07:47:12;2.72;;;0.77;;
56171;SDS011;42052;41.634;-0.946;2024-02-23T07:49:38;2.78;;;0.90;;
56171;SDS011;42052;41.634;-0.946;2024-02-23T07:52:06;1.23;;;0.65;;
56171;SDS011;42052;41.634;-0.946;2024-02-23T07:54:32;2.28;;;0.70;;
56171;SDS011;42052;41.634;-0.946;2024-02-23T07:56:58;2.30;;;0.70;;
56171;SDS011;42052;41.634;-0.946;2024-02-23T07:59:24;2.15;;;0.80;;
56171;SDS011;42052;41.634;-0.946;2024-02-23T08:01:50;1.52;;;0.77;;
56171;SDS011;42052;41.634;-0.946;2024-02-23T08:04:16;4.20;;;1.10;;
56171;SDS011;42052;41.634;-0.946;2024-02-23T08:06:42;1.02;;;0.60;;
56171;SDS011;42052;41.634;-0.946;2024-02-23T08:09:08;2.53;;;0.85;;
56171;SDS011;42052;41.634;-0.946;2024-02-23T08:11:34;2.25;;;0.70;;
56171;SDS011;42052;41.634;-0.946;2024-02-23T08:14:00;2.10;;;0.70;;
56171;SDS011;42052;41.634;-0.946;2024-02-23T08:16:28;2.22;;;0.90;;
56171;SDS011;42052;41.634;-0.946;2024-02-23T08:18:54;1.75;;;0.77;;
56171;SDS011;42052;41.634;-0.946;2024-02-23T08:21:20;1.83;;;0.70;;
56171;SDS011;42052;41.634;-0.946;2024-02-23T08:23:46;1.30;;;0.70;;
56171;SDS011;42052;41.634;-0.946;2024-02-23T08:26:11;2.92;;;0.90;;
56171;SDS011;42052;41.634;-0.946;2024-02-23T08:28:37;1.85;;;0.80;;
56171;SDS011;42052;41.634;-0.946;2024-02-23T08:31:03;1.58;;;0.70;;
56171;SDS011;42052;41.634;-0.946;2024-02-23T08:33:30;1.67;;;0.70;;
56171;SDS011;42052;41.634;-0.946;2024-02-23T08:35:56;1.88;;;0.70;;
56171;SDS011;42052;41.634;-0.946;2024-02-23T08:38:21;2.13;;;0.70;;
56171;SDS011;42052;41.634;-0.946;2024-02-23T08:40:47;1.00;;;0.60;;
56171;SDS011;42052;41.634;-0.946;2024-02-23T08:43:14;1.65;;;0.65;;
56171;SDS011;42052;41.634;-0.946;2024-02-23T08:45:40;1.58;;;0.60;;
56171;SDS011;42052;41.634;-0.946;2024-02-23T08:48:06;1.88;;;0.68;;
56171;SDS011;42052;41.634;-0.946;2024-02-23T08:50:32;1.25;;;0.60;;
56171;SDS011;42052;41.634;-0.946;2024-02-23T08:52:59;1.80;;;0.70;;
56171;SDS011;42052;41.634;-0.946;2024-02-23T08:55:25;1.55;;;0.65;;
56171;SDS011;42052;41.634;-0.946;2024-02-23T08:57:51;2.10;;;0.70;;
56171;SDS011;42052;41.634;-0.946;2024-02-23T09:00:17;1.25;;;0.60;;
56171;SDS011;42052;41.634;-0.946;2024-02-23T09:02:43;2.03;;;0.60;;
56171;SDS011;42052;41.634;-0.946;2024-02-23T09:05:09;1.45;;;0.70;;
56171;SDS011;42052;41.634;-0.946;2024-02-23T09:07:35;1.85;;;0.50;;
56171;SDS011;42052;41.634;-0.946;2024-02-23T09:10:01;2.30;;;0.80;;
56171;SDS011;42052;41.634;-0.946;2024-02-23T09:12:30;4.35;;;0.70;;
56171;SDS011;42052;41.634;-0.946;2024-02-23T09:14:55;1.63;;;0.60;;
56171;SDS011;42052;41.634;-0.946;2024-02-23T09:17:21;1.27;;;0.60;;
56171;SDS011;42052;41.634;-0.946;2024-02-23T09:19:48;1.42;;;0.65;;
56171;SDS011;42052;41.634;-0.946;2024-02-23T09:22:14;1.33;;;0.80;;
56171;SDS011;42052;41.634;-0.946;2024-02-23T09:24:41;1.95;;;0.80;;
56171;SDS011;42052;41.634;-0.946;2024-02-23T09:27:07;1.48;;;0.60;;
56171;SDS011;42052;41.634;-0.946;2024-02-23T09:29:33;1.23;;;0.60;;
56171;SDS011;42052;41.634;-0.946;2024-02-23T09:31:59;1.25;;;0.70;;
56171;SDS011;42052;41.634;-0.946;2024-02-23T09:34:25;0.95;;;0.47;;
56171;SDS011;42052;41.634;-0.946;2024-02-23T09:36:51;1.20;;;0.50;;
56171;SDS011;42052;41.634;-0.946;2024-02-23T09:39:17;1.38;;;0.70;;
56171;SDS011;42052;41.634;-0.946;2024-02-23T09:41:43;1.77;;;0.60;;
56171;SDS011;42052;41.634;-0.946;2024-02-23T09:44:09;1.58;;;0.60;;
56171;SDS011;42052;41.634;-0.946;2024-02-23T09:46:39;1.55;;;0.52;;
56171;SDS011;42052;41.634;-0.946;2024-02-23T09:49:05;1.23;;;0.60;;
56171;SDS011;42052;41.634;-0.946;2024-02-23T09:51:34;1.60;;;0.60;;
56171;SDS011;42052;41.634;-0.946;2024-02-23T09:54:01;1.20;;;0.55;;
56171;SDS011;42052;41.634;-0.946;2024-02-23T09:56:28;1.38;;;0.50;;
56171;SDS011;42052;41.634;-0.946;2024-02-23T09:58:59;0.98;;;0.50;;
56171;SDS011;42052;41.634;-0.946;2024-02-23T10:01:27;2.13;;;0.70;;
56171;SDS011;42052;41.634;-0.946;2024-02-23T10:03:56;2.17;;;0.70;;
56171;SDS011;42052;41.634;-0.946;2024-02-23T10:06:24;1.17;;;0.60;;
56171;SDS011;42052;41.634;-0.946;2024-02-23T10:08:50;3.13;;;0.52;;
56171;SDS011;42052;41.634;-0.946;2024-02-23T10:11:22;1.80;;;0.70;;
56171;SDS011;42052;41.634;-0.946;2024-02-23T10:13:49;1.60;;;0.43;;
56171;SDS011;42052;41.634;-0.946;2024-02-23T10:16:15;1.42;;;0.50;;
56171;SDS011;42052;41.634;-0.946;2024-02-23T10:18:42;1.67;;;0.60;;
56171;SDS011;42052;41.634;-0.946;2024-02-23T10:21:08;1.35;;;0.50;;
56171;SDS011;42052;41.634;-0.946;2024-02-23T10:23:34;1.50;;;0.60;;
56171;SDS011;42052;41.634;-0.946;2024-02-23T10:26:00;1.10;;;0.50;;
56171;SDS011;42052;41.634;-0.946;2024-02-23T10:28:25;1.75;;;0.50;;
56171;SDS011;42052;41.634;-0.946;2024-02-23T10:30:53;1.45;;;0.50;;
56171;SDS011;42052;41.634;-0.946;2024-02-23T10:33:20;1.23;;;0.57;;
56171;SDS011;42052;41.634;-0.946;2024-02-23T10:35:54;1.10;;;0.57;;
56171;SDS011;42052;41.634;-0.946;2024-02-23T10:38:26;1.15;;;0.50;;
56171;SDS011;42052;41.634;-0.946;2024-02-23T10:40:54;1.05;;;0.43;;
56171;SDS011;42052;41.634;-0.946;2024-02-23T10:46:24;1.40;;;0.50;;
56171;SDS011;42052;41.634;-0.946;2024-02-23T10:48:53;1.27;;;0.60;;
56171;SDS011;42052;41.634;-0.946;2024-02-23T10:51:24;1.58;;;0.40;;
56171;SDS011;42052;41.634;-0.946;2024-02-23T10:53:50;1.10;;;0.40;;
56171;SDS011;42052;41.634;-0.946;2024-02-23T10:56:18;1.08;;;0.40;;
56171;SDS011;42052;41.634;-0.946;2024-02-23T10:58:44;1.23;;;0.57;;
56171;SDS011;42052;41.634;-0.946;2024-02-23T11:01:11;0.75;;;0.43;;
56171;SDS011;42052;41.634;-0.946;2024-02-23T11:03:38;1.10;;;0.50;;
56171;SDS011;42052;41.634;-0.946;2024-02-23T11:06:09;1.48;;;0.52;;
56171;SDS011;42052;41.634;-0.946;2024-02-23T11:08:36;1.08;;;0.38;;
56171;SDS011;42052;41.634;-0.946;2024-02-23T11:11:09;1.02;;;0.50;;
56171;SDS011;42052;41.634;-0.946;2024-02-23T11:13:36;1.15;;;0.50;;
56171;SDS011;42052;41.634;-0.946;2024-02-23T11:16:04;1.05;;;0.40;;
56171;SDS011;42052;41.634;-0.946;2024-02-23T11:18:31;1.15;;;0.50;;
56171;SDS011;42052;41.634;-0.946;2024-02-23T11:21:00;0.93;;;0.50;;
56171;SDS011;42052;41.634;-0.946;2024-02-23T11:23:43;1.65;;;0.52;;
56171;SDS011;42052;41.634;-0.946;2024-02-23T11:26:13;0.88;;;0.50;;
56171;SDS011;42052;41.634;-0.946;2024-02-23T11:28:49;1.38;;;0.60;;
56171;SDS011;42052;41.634;-0.946;2024-02-23T11:31:21;1.40;;;0.47;;
56171;SDS011;42052;41.634;-0.946;2024-02-23T11:33:54;1.55;;;0.45;;
56171;SDS011;42052;41.634;-0.946;2024-02-23T11:36:27;1.63;;;0.50;;
56171;SDS011;42052;41.634;-0.946;2024-02-23T11:41:22;0.68;;;0.40;;
56171;SDS011;42052;41.634;-0.946;2024-02-23T11:43:49;1.23;;;0.35;;
56171;SDS011;42052;41.634;-0.946;2024-02-23T11:46:16;1.00;;;0.70;;
56171;SDS011;42052;41.634;-0.946;2024-02-23T11:48:42;0.40;;;0.30;;
56171;SDS011;42052;41.634;-0.946;2024-02-23T11:51:09;1.20;;;0.50;;
56171;SDS011;42052;41.634;-0.946;2024-02-23T11:53:38;1.55;;;0.60;;
56171;SDS011;42052;41.634;-0.946;2024-02-23T11:56:05;1.63;;;0.55;;
56171;SDS011;42052;41.634;-0.946;2024-02-23T11:58:34;1.20;;;0.60;;
56171;SDS011;42052;41.634;-0.946;2024-02-23T12:01:00;1.83;;;0.60;;
56171;SDS011;42052;41.634;-0.946;2024-02-23T12:03:29;1.08;;;0.50;;
56171;SDS011;42052;41.634;-0.946;2024-02-23T12:06:02;0.77;;;0.50;;
56171;SDS011;42052;41.634;-0.946;2024-02-23T12:08:29;1.42;;;0.50;;
56171;SDS011;42052;41.634;-0.946;2024-02-23T12:11:02;1.10;;;0.55;;
56171;SDS011;42052;41.634;-0.946;2024-02-23T12:13:35;1.60;;;0.65;;
56171;SDS011;42052;41.634;-0.946;2024-02-23T12:16:02;1.10;;;0.40;;
56171;SDS011;42052;41.634;-0.946;2024-02-23T12:18:28;0.47;;;0.30;;
56171;SDS011;42052;41.634;-0.946;2024-02-23T12:21:06;1.02;;;0.40;;
56171;SDS011;42052;41.634;-0.946;2024-02-23T12:23:40;0.68;;;0.40;;
56171;SDS011;42052;41.634;-0.946;2024-02-23T12:26:15;1.30;;;0.40;;
56171;SDS011;42052;41.634;-0.946;2024-02-23T12:28:42;0.65;;;0.30;;
56171;SDS011;42052;41.634;-0.946;2024-02-23T12:31:09;0.30;;;0.20;;
56171;SDS011;42052;41.634;-0.946;2024-02-23T12:33:35;0.73;;;0.30;;
56171;SDS011;42052;41.634;-0.946;2024-02-23T12:36:03;1.38;;;0.47;;
56171;SDS011;42052;41.634;-0.946;2024-02-23T12:38:30;1.10;;;0.40;;
56171;SDS011;42052;41.634;-0.946;2024-02-23T12:40:56;0.60;;;0.30;;
56171;SDS011;42052;41.634;-0.946;2024-02-23T12:43:23;0.70;;;0.35;;
56171;SDS011;42052;41.634;-0.946;2024-02-23T12:45:53;0.63;;;0.30;;
56171;SDS011;42052;41.634;-0.946;2024-02-23T12:48:19;0.80;;;0.30;;
56171;SDS011;42052;41.634;-0.946;2024-02-23T12:50:46;1.17;;;0.40;;
56171;SDS011;42052;41.634;-0.946;2024-02-23T12:53:46;0.63;;;0.30;;
56171;SDS011;42052;41.634;-0.946;2024-02-23T12:56:12;0.73;;;0.32;;
56171;SDS011;42052;41.634;-0.946;2024-02-23T12:58:43;3.13;;;0.60;;
56171;SDS011;42052;41.634;-0.946;2024-02-23T13:01:10;1.40;;;0.40;;
56171;SDS011;42052;41.634;-0.946;2024-02-23T13:03:37;0.45;;;0.30;;
56171;SDS011;42052;41.634;-0.946;2024-02-23T13:06:06;0.82;;;0.40;;
56171;SDS011;42052;41.634;-0.946;2024-02-23T13:08:32;0.70;;;0.40;;
56171;SDS011;42052;41.634;-0.946;2024-02-23T13:10:59;0.68;;;0.30;;
56171;SDS011;42052;41.634;-0.946;2024-02-23T13:13:26;0.80;;;0.30;;
56171;SDS011;42052;41.634;-0.946;2024-02-23T13:15:52;0.85;;;0.30;;
56171;SDS011;42052;41.634;-0.946;2024-02-23T13:18:19;0.57;;;0.30;;
56171;SDS011;42052;41.634;-0.946;2024-02-23T13:20:45;0.52;;;0.20;;
56171;SDS011;42052;41.634;-0.946;2024-02-23T13:23:11;1.33;;;0.45;;
56171;SDS011;42052;41.634;-0.946;2024-02-23T13:25:38;1.10;;;0.40;;
56171;SDS011;42052;41.634;-0.946;2024-02-23T13:28:05;0.90;;;0.30;;
56171;SDS011;42052;41.634;-0.946;2024-02-23T13:30:32;0.80;;;0.30;;
56171;SDS011;42052;41.634;-0.946;2024-02-23T13:32:59;0.80;;;0.30;;
56171;SDS011;42052;41.634;-0.946;2024-02-23T13:35:26;0.85;;;0.20;;
56171;SDS011;42052;41.634;-0.946;2024-02-23T13:37:52;0.68;;;0.30;;
56171;SDS011;42052;41.634;-0.946;2024-02-23T13:40:18;0.52;;;0.30;;
56171;SDS011;42052;41.634;-0.946;2024-02-23T13:42:44;0.50;;;0.40;;
56171;SDS011;42052;41.634;-0.946;2024-02-23T13:45:17;0.80;;;0.30;;
56171;SDS011;42052;41.634;-0.946;2024-02-23T13:48:05;1.08;;;0.30;;
56171;SDS011;42052;41.634;-0.946;2024-02-23T13:50:30;0.50;;;0.35;;
56171;SDS011;42052;41.634;-0.946;2024-02-23T13:52:57;0.57;;;0.30;;
56171;SDS011;42052;41.634;-0.946;2024-02-23T13:55:24;0.45;;;0.30;;
56171;SDS011;42052;41.634;-0.946;2024-02-23T13:57:49;0.45;;;0.20;;
56171;SDS011;42052;41.634;-0.946;2024-02-23T14:00:16;0.77;;;0.25;;
56171;SDS011;42052;41.634;-0.946;2024-02-23T14:02:43;0.20;;;0.20;;
56171;SDS011;42052;41.634;-0.946;2024-02-23T14:05:10;0.30;;;0.30;;
56171;SDS011;42052;41.634;-0.946;2024-02-23T14:07:40;0.45;;;0.30;;
56171;SDS011;42052;41.634;-0.946;2024-02-23T14:10:06;0.73;;;0.28;;
56171;SDS011;42052;41.634;-0.946;2024-02-23T14:12:32;0.50;;;0.30;;
56171;SDS011;42052;41.634;-0.946;2024-02-23T14:14:58;0.95;;;0.38;;
56171;SDS011;42052;41.634;-0.946;2024-02-23T14:17:25;0.93;;;0.22;;
56171;SDS011;42052;41.634;-0.946;2024-02-23T14:19:54;0.32;;;0.30;;
56171;SDS011;42052;41.634;-0.946;2024-02-23T14:22:20;0.55;;;0.32;;
56171;SDS011;42052;41.634;-0.946;2024-02-23T14:24:46;0.95;;;0.30;;
56171;SDS011;42052;41.634;-0.946;2024-02-23T14:27:11;1.10;;;0.30;;
56171;SDS011;42052;41.634;-0.946;2024-02-23T14:29:37;2.05;;;0.30;;
56171;SDS011;42052;41.634;-0.946;2024-02-23T14:32:03;0.57;;;0.20;;
56171;SDS011;42052;41.634;-0.946;2024-02-23T14:34:30;0.35;;;0.20;;
56171;SDS011;42052;41.634;-0.946;2024-02-23T14:36:58;0.57;;;0.20;;